createdAt,value
2022-12-18T00:02:06.463Z,15.57
2022-12-18T00:04:53.870Z,16.00
2022-12-18T00:07:41.320Z,15.93
2022-12-18T00:10:29.153Z,15.27
2022-12-18T00:13:16.607Z,16.23
2022-12-18T00:16:08.435Z,15.90
2022-12-18T00:18:58.098Z,15.30
2022-12-18T00:21:46.201Z,15.83
2022-12-18T00:24:34.133Z,15.23
2022-12-18T00:27:21.580Z,14.17
2022-12-18T00:30:09.355Z,15.97
2022-12-18T00:32:57.710Z,15.93
2022-12-18T00:35:45.247Z,15.37
2022-12-18T00:38:33.110Z,16.13
2022-12-18T00:41:38.818Z,15.13
2022-12-18T00:44:25.851Z,15.70
2022-12-18T00:47:13.540Z,13.47
2022-12-18T00:50:01.071Z,15.03
2022-12-18T00:52:48.384Z,14.43
2022-12-18T00:55:36.262Z,13.77
2022-12-18T00:58:23.787Z,13.57
2022-12-18T01:01:10.682Z,14.20
2022-12-18T01:03:57.906Z,13.20
2022-12-18T01:06:45.004Z,13.90
2022-12-18T01:09:32.570Z,15.50
2022-12-18T01:12:19.615Z,16.33
2022-12-18T01:15:08.463Z,13.27
2022-12-18T01:17:55.495Z,14.07
2022-12-18T01:20:42.608Z,13.57
2022-12-18T01:23:30.202Z,14.17
2022-12-18T01:26:18.064Z,13.03
2022-12-18T01:29:05.976Z,13.47
2022-12-18T01:31:56.427Z,15.77
2022-12-18T01:34:44.279Z,14.43
2022-12-18T01:37:32.577Z,15.83
2022-12-18T01:40:20.513Z,14.40
2022-12-18T01:43:10.791Z,14.77
2022-12-18T01:46:01.510Z,14.27
2022-12-18T01:48:50.383Z,15.87
2022-12-18T01:51:37.672Z,13.50
2022-12-18T01:54:25.091Z,14.20
2022-12-18T01:57:13.232Z,12.77
2022-12-18T02:00:02.579Z,13.90
2022-12-18T02:02:50.730Z,12.27
2022-12-18T02:05:38.736Z,14.60
2022-12-18T02:08:39.745Z,12.47
2022-12-18T02:11:35.103Z,13.07
2022-12-18T02:14:31.512Z,12.23
2022-12-18T02:17:21.683Z,14.70
2022-12-18T02:20:18.606Z,13.97
2022-12-18T02:23:11.538Z,13.27
2022-12-18T02:26:19.656Z,14.33
2022-12-18T02:29:10.536Z,13.57
2022-12-18T02:31:59.344Z,14.87
2022-12-18T02:34:48.347Z,14.23
2022-12-18T02:37:36.870Z,15.23
2022-12-18T02:40:26.001Z,13.83
2022-12-18T02:43:17.636Z,13.67
2022-12-18T02:46:23.594Z,15.70
2022-12-18T02:49:20.269Z,16.63
2022-12-18T02:52:13.622Z,15.43
2022-12-18T02:55:07.696Z,14.97
2022-12-18T02:58:06.176Z,14.27
2022-12-18T03:01:03.207Z,14.10
2022-12-18T03:03:51.048Z,16.17
2022-12-18T03:06:47.573Z,15.90
2022-12-18T03:09:38.197Z,17.10
2022-12-18T03:12:30.858Z,16.93
2022-12-18T03:15:24.419Z,15.50
2022-12-18T03:18:18.073Z,16.03
2022-12-18T03:21:07.547Z,15.53
2022-12-18T03:23:55.411Z,16.10
2022-12-18T03:26:45.924Z,14.83
2022-12-18T03:29:40.584Z,15.47
2022-12-18T03:32:31.190Z,14.20
2022-12-18T03:35:21.941Z,14.47
2022-12-18T03:38:10.758Z,17.03
2022-12-18T03:41:03.060Z,14.07
2022-12-18T03:44:15.620Z,15.53
2022-12-18T03:47:03.077Z,15.73
2022-12-18T03:49:53.873Z,14.83
2022-12-18T03:53:00.349Z,14.73
2022-12-18T03:55:48.693Z,16.13
2022-12-18T03:58:37.781Z,17.07
2022-12-18T04:01:30.587Z,14.43
2022-12-18T04:04:20.472Z,16.53
2022-12-18T04:07:08.934Z,14.93
2022-12-18T04:09:58.301Z,16.07
2022-12-18T04:12:46.252Z,15.67
2022-12-18T04:15:36.240Z,16.90
2022-12-18T04:18:24.158Z,15.37
2022-12-18T04:21:12.010Z,15.83
2022-12-18T04:23:59.953Z,16.27
2022-12-18T04:26:47.500Z,14.67
2022-12-18T04:29:35.432Z,14.77
2022-12-18T04:32:22.705Z,16.07
2022-12-18T04:35:12.036Z,15.00
2022-12-18T04:37:59.460Z,14.90
2022-12-18T04:40:47.409Z,15.40
2022-12-18T04:43:34.933Z,16.17
2022-12-18T04:46:22.925Z,14.10
2022-12-18T04:49:11.434Z,16.03
2022-12-18T04:51:59.242Z,16.70
2022-12-18T04:54:46.691Z,15.33
2022-12-18T04:57:34.641Z,15.33
2022-12-18T05:00:21.924Z,15.07
2022-12-18T05:03:09.945Z,16.57
2022-12-18T05:05:57.369Z,16.37
2022-12-18T05:08:44.953Z,14.90
2022-12-18T05:11:33.654Z,15.93
2022-12-18T05:14:21.742Z,16.47
2022-12-18T05:17:08.977Z,15.47
2022-12-18T05:19:56.885Z,15.23
2022-12-18T05:22:44.814Z,16.33
2022-12-18T05:25:32.246Z,16.97
2022-12-18T05:28:20.251Z,16.30
2022-12-18T05:31:07.881Z,15.17
2022-12-18T05:33:55.699Z,16.37
2022-12-18T05:36:43.767Z,16.70
2022-12-18T05:39:32.580Z,14.53
2022-12-18T05:42:20.396Z,15.27
2022-12-18T05:45:08.599Z,14.93
2022-12-18T05:47:56.028Z,14.57
2022-12-18T05:50:46.903Z,14.20
2022-12-18T05:53:34.936Z,14.20
2022-12-18T05:56:23.843Z,15.97
2022-12-18T05:59:11.255Z,14.07
2022-12-18T06:01:59.295Z,14.03
2022-12-18T06:04:47.142Z,14.60
2022-12-18T06:07:34.443Z,14.93
2022-12-18T06:10:21.889Z,14.30
2022-12-18T06:13:09.704Z,14.70
2022-12-18T06:15:57.157Z,13.97
2022-12-18T06:18:45.100Z,14.40
2022-12-18T06:21:33.946Z,13.33
2022-12-18T06:24:22.414Z,14.50
2022-12-18T06:27:10.370Z,14.97
2022-12-18T06:29:58.290Z,15.43
2022-12-18T06:32:45.741Z,16.13
2022-12-18T06:35:36.338Z,12.87
2022-12-18T06:38:24.265Z,15.43
2022-12-18T06:41:12.859Z,14.37
2022-12-18T06:44:00.817Z,14.07
2022-12-18T06:46:48.379Z,14.23
2022-12-18T06:49:36.347Z,12.90
2022-12-18T06:52:23.769Z,14.27
2022-12-18T06:55:12.399Z,12.97
2022-12-18T06:58:00.037Z,13.17
2022-12-18T07:00:48.035Z,13.67
2022-12-18T07:03:35.642Z,13.33
2022-12-18T07:06:24.759Z,13.80
2022-12-18T07:09:12.209Z,13.33
2022-12-18T07:12:00.130Z,13.93
2022-12-18T07:14:47.571Z,13.10
2022-12-18T07:17:35.525Z,13.43
2022-12-18T07:20:22.932Z,15.93
2022-12-18T07:23:10.867Z,12.47
2022-12-18T07:26:01.807Z,12.63
2022-12-18T07:28:50.164Z,14.67
2022-12-18T07:31:38.153Z,13.43
2022-12-18T07:34:26.028Z,13.13
2022-12-18T07:37:13.991Z,13.87
2022-12-18T07:40:02.664Z,13.03
2022-12-18T07:42:50.620Z,15.77
2022-12-18T07:45:38.622Z,13.67
2022-12-18T07:48:26.552Z,13.07
2022-12-18T07:51:14.420Z,13.27
2022-12-18T07:54:03.099Z,12.30
2022-12-18T07:56:50.653Z,13.97
2022-12-18T07:59:38.287Z,13.47
2022-12-18T08:02:25.835Z,14.47
2022-12-18T08:05:14.420Z,15.63
2022-12-18T08:08:02.334Z,13.87
2022-12-18T08:10:50.049Z,12.50
2022-12-18T08:13:38.279Z,14.10
2022-12-18T08:16:26.074Z,13.93
2022-12-18T08:19:13.582Z,16.77
2022-12-18T08:22:01.044Z,14.23
2022-12-18T08:24:48.487Z,14.87
2022-12-18T08:27:36.027Z,14.87
2022-12-18T08:30:23.943Z,15.03
2022-12-18T08:33:11.434Z,13.60
2022-12-18T08:36:00.033Z,13.63
2022-12-18T08:38:47.922Z,12.57
2022-12-18T08:41:35.856Z,13.93
2022-12-18T08:44:38.823Z,12.93
2022-12-18T08:47:26.963Z,13.40
2022-12-18T08:50:15.029Z,12.80
2022-12-18T08:53:02.770Z,13.53
2022-12-18T08:55:50.655Z,14.03
2022-12-18T08:58:38.571Z,12.77
2022-12-18T09:01:26.197Z,12.37
2022-12-18T09:04:15.401Z,12.27
2022-12-18T09:07:03.493Z,11.33
2022-12-18T09:09:50.979Z,12.60
2022-12-18T09:12:38.431Z,12.83
2022-12-18T09:15:26.478Z,12.80
2022-12-18T09:18:15.088Z,12.37
2022-12-18T09:21:09.508Z,13.10
2022-12-18T09:23:57.371Z,11.53
2022-12-18T09:26:47.407Z,11.60
2022-12-18T09:29:35.193Z,11.23
2022-12-18T09:32:23.201Z,11.40
2022-12-18T09:35:10.750Z,10.63
2022-12-18T09:37:58.686Z,12.73
2022-12-18T09:40:48.378Z,13.83
2022-12-18T09:43:39.539Z,11.93
2022-12-18T09:46:30.136Z,11.53
2022-12-18T09:49:19.013Z,12.30
2022-12-18T09:52:10.606Z,12.57
2022-12-18T09:55:02.973Z,12.23
2022-12-18T09:57:53.121Z,10.93
2022-12-18T10:00:41.053Z,11.60
2022-12-18T10:03:28.532Z,12.90
2022-12-18T10:06:20.785Z,10.70
2022-12-18T10:09:11.746Z,10.90
2022-12-18T10:12:07.239Z,11.40
2022-12-18T10:15:06.370Z,12.87
2022-12-18T10:17:57.884Z,11.57
2022-12-18T10:20:54.115Z,11.70
2022-12-18T10:23:48.662Z,11.87
2022-12-18T10:26:36.190Z,11.10
2022-12-18T10:29:24.754Z,10.83
2022-12-18T10:32:19.526Z,10.13
2022-12-18T10:35:11.661Z,13.20
2022-12-18T10:38:22.593Z,11.13
2022-12-18T10:41:24.824Z,11.00
2022-12-18T10:44:13.947Z,11.87
2022-12-18T10:47:11.688Z,11.70
2022-12-18T10:50:00.327Z,12.30
2022-12-18T10:52:54.924Z,12.20
2022-12-18T10:55:46.074Z,11.93
2022-12-18T10:58:37.523Z,12.23
2022-12-18T11:01:25.124Z,12.57
2022-12-18T11:04:18.013Z,12.73
2022-12-18T11:07:12.088Z,11.93
2022-12-18T11:10:02.810Z,11.63
2022-12-18T11:12:50.421Z,10.93
2022-12-18T11:15:38.612Z,10.37
2022-12-18T11:18:29.606Z,11.83
2022-12-18T11:21:17.883Z,13.77
2022-12-18T11:24:06.067Z,12.07
2022-12-18T11:26:59.495Z,12.10
2022-12-18T11:29:47.704Z,11.60
2022-12-18T11:32:40.796Z,11.17
2022-12-18T11:35:28.658Z,13.03
2022-12-18T11:38:23.741Z,10.57
2022-12-18T11:41:18.819Z,11.37
2022-12-18T11:44:07.927Z,12.23
2022-12-18T11:47:03.407Z,10.90
2022-12-18T11:49:51.796Z,10.70
2022-12-18T11:52:40.711Z,11.57
2022-12-18T11:55:34.183Z,11.70
2022-12-18T11:58:35.222Z,11.93
2022-12-18T12:01:32.936Z,11.13
2022-12-18T12:04:24.092Z,12.10
2022-12-18T12:07:11.450Z,11.13
2022-12-18T12:10:07.864Z,10.23
2022-12-18T12:13:07.032Z,11.07
2022-12-18T12:16:12.890Z,10.90
2022-12-18T12:19:00.516Z,11.37
2022-12-18T12:21:51.901Z,10.80
2022-12-18T12:24:45.331Z,11.67
2022-12-18T12:27:33.217Z,11.87
2022-12-18T12:30:22.868Z,11.20
2022-12-18T12:33:16.829Z,10.77
2022-12-18T12:36:16.962Z,11.57
2022-12-18T12:39:08.563Z,10.00
2022-12-18T12:42:16.970Z,10.70
2022-12-18T12:45:06.681Z,10.90
2022-12-18T12:47:56.717Z,11.93
2022-12-18T12:50:45.923Z,11.30
2022-12-18T12:53:37.318Z,11.80
2022-12-18T12:56:27.691Z,12.37
2022-12-18T12:59:20.865Z,11.77
2022-12-18T13:02:22.857Z,12.17
2022-12-18T13:05:25.660Z,11.17
2022-12-18T13:08:25.314Z,12.23
2022-12-18T13:11:48.852Z,11.57
2022-12-18T13:14:40.704Z,9.83
2022-12-18T13:17:32.488Z,10.70
2022-12-18T13:20:20.462Z,12.23
2022-12-18T13:23:34.538Z,10.67
2022-12-18T13:26:28.792Z,11.23
2022-12-18T13:29:36.877Z,10.80
2022-12-18T13:32:27.584Z,10.40
2022-12-18T13:35:24.661Z,10.97
2022-12-18T13:38:31.921Z,11.50
2022-12-18T13:41:19.994Z,10.50
2022-12-18T13:44:26.502Z,12.03
2022-12-18T13:47:34.750Z,11.87
2022-12-18T13:50:24.587Z,9.77
2022-12-18T13:53:31.005Z,10.30
2022-12-18T13:56:20.302Z,11.10
2022-12-18T13:59:14.668Z,11.27
2022-12-18T14:02:07.315Z,10.50
2022-12-18T14:04:55.486Z,11.40
2022-12-18T14:07:44.967Z,11.43
2022-12-18T14:10:48.586Z,10.43
2022-12-18T14:13:38.997Z,11.67
2022-12-18T14:16:26.799Z,11.50
2022-12-18T14:19:18.510Z,10.03
2022-12-18T14:27:38.637Z,12.80
2022-12-18T14:30:27.068Z,12.23
2022-12-18T14:43:56.384Z,11.77
2022-12-18T14:46:48.876Z,12.17
2022-12-18T14:49:37.736Z,10.67
2022-12-18T14:52:29.885Z,10.43
2022-12-18T14:55:18.264Z,11.73
2022-12-18T14:58:05.964Z,12.33
2022-12-18T15:00:53.433Z,10.40
2022-12-18T15:03:45.635Z,11.43
2022-12-18T15:06:38.046Z,12.33
2022-12-18T15:09:27.733Z,12.33
2022-12-18T15:12:35.893Z,10.53
2022-12-18T15:15:39.144Z,11.03
2022-12-18T15:18:32.328Z,12.20
2022-12-18T15:21:21.340Z,11.80
2022-12-18T15:24:18.392Z,13.67
2022-12-18T15:27:06.127Z,14.00
2022-12-18T15:30:08.868Z,11.97
2022-12-18T15:33:16.244Z,11.47
2022-12-18T15:36:05.830Z,13.10
2022-12-18T15:38:54.682Z,11.57
2022-12-18T15:42:03.441Z,11.33
2022-12-18T15:44:49.973Z,12.33
2022-12-18T15:47:38.065Z,13.30
2022-12-18T15:50:25.872Z,12.47
2022-12-18T15:53:14.503Z,13.10
2022-12-18T15:56:20.684Z,11.83
2022-12-18T15:59:15.604Z,12.70
2022-12-18T16:02:03.879Z,12.83
2022-12-18T16:04:53.181Z,13.17
2022-12-18T16:07:40.382Z,13.00
2022-12-18T16:10:28.482Z,13.40
2022-12-18T16:13:17.701Z,11.80
2022-12-18T16:16:05.791Z,13.17
2022-12-18T16:18:53.157Z,12.23
2022-12-18T16:21:40.630Z,13.23
2022-12-18T16:24:32.881Z,13.27
2022-12-18T16:27:20.805Z,13.33
2022-12-18T16:30:08.392Z,13.30
2022-12-18T16:32:56.529Z,13.40
2022-12-18T16:35:43.830Z,14.47
2022-12-18T16:38:31.581Z,13.40
2022-12-18T16:41:33.150Z,13.23
2022-12-18T16:44:21.163Z,14.53
2022-12-18T16:47:08.406Z,13.07
2022-12-18T16:49:57.587Z,12.10
2022-12-18T16:52:44.934Z,12.90
2022-12-18T16:55:32.198Z,13.70
2022-12-18T16:58:20.100Z,12.87
2022-12-18T17:01:11.548Z,13.63
2022-12-18T17:04:06.088Z,15.77
2022-12-18T17:06:53.947Z,12.03
2022-12-18T17:09:41.806Z,14.70
2022-12-18T17:12:36.781Z,14.37
2022-12-18T17:15:24.627Z,12.67
2022-12-18T17:18:12.438Z,13.90
2022-12-18T17:21:05.015Z,13.10
2022-12-18T17:23:52.404Z,13.20
2022-12-18T17:26:40.346Z,13.17
2022-12-18T17:29:27.756Z,13.10
2022-12-18T17:32:15.516Z,13.63
2022-12-18T17:35:07.208Z,13.83
2022-12-18T17:37:55.423Z,15.40
2022-12-18T17:40:46.449Z,14.27
2022-12-18T17:43:39.509Z,14.67
2022-12-18T17:46:28.072Z,14.20
2022-12-18T17:49:16.076Z,13.37
2022-12-18T17:52:03.389Z,14.37
2022-12-18T17:54:51.309Z,14.00
2022-12-18T17:57:38.766Z,13.77
2022-12-18T18:00:26.933Z,13.53
2022-12-18T18:03:15.042Z,14.80
2022-12-18T18:06:02.875Z,14.00
2022-12-18T18:08:51.113Z,14.63
2022-12-18T18:11:57.433Z,14.37
2022-12-18T18:14:44.786Z,16.77
2022-12-18T18:17:32.440Z,14.03
2022-12-18T18:20:22.676Z,14.47
2022-12-18T18:23:10.328Z,14.63
2022-12-18T18:26:02.797Z,13.43
2022-12-18T18:28:54.702Z,14.77
2022-12-18T18:31:42.329Z,12.63
2022-12-18T18:34:31.408Z,14.67
2022-12-18T18:37:18.826Z,14.63
2022-12-18T18:40:07.732Z,13.37
2022-12-18T18:42:54.999Z,13.00
2022-12-18T18:45:42.353Z,15.30
2022-12-18T18:48:34.346Z,13.83
2022-12-18T18:51:24.386Z,15.87
2022-12-18T18:54:11.872Z,14.80
2022-12-18T18:57:20.022Z,15.37
2022-12-18T19:00:08.581Z,15.13
2022-12-18T19:03:00.461Z,15.10
2022-12-18T19:05:52.276Z,14.83
2022-12-18T19:08:40.443Z,14.27
2022-12-18T19:11:46.634Z,17.50
2022-12-18T19:14:34.630Z,16.47
2022-12-18T19:17:26.417Z,16.90
2022-12-18T19:20:17.475Z,16.10
2022-12-18T19:23:04.976Z,15.73
2022-12-18T19:26:04.082Z,15.83
2022-12-18T19:29:04.323Z,16.17
2022-12-18T19:31:52.296Z,13.73
2022-12-18T19:34:39.528Z,15.53
2022-12-18T19:37:27.010Z,14.90
2022-12-18T19:40:14.313Z,16.60
2022-12-18T19:43:02.038Z,16.33
2022-12-18T19:45:55.132Z,16.97
2022-12-18T19:48:43.747Z,16.80
2022-12-18T19:51:32.024Z,18.33
2022-12-18T19:54:19.752Z,15.90
2022-12-18T19:57:08.564Z,14.80
2022-12-18T19:59:55.976Z,16.93
2022-12-18T20:02:43.793Z,17.27
2022-12-18T20:05:31.525Z,15.40
2022-12-18T20:08:18.866Z,14.77
2022-12-18T20:11:06.720Z,16.77
2022-12-18T20:13:54.608Z,15.53
2022-12-18T20:16:42.398Z,15.83
2022-12-18T20:19:31.608Z,15.93
2022-12-18T20:22:21.724Z,18.13
2022-12-18T20:25:09.727Z,16.73
2022-12-18T20:27:57.407Z,16.33
2022-12-18T20:30:44.863Z,19.87
2022-12-18T20:33:32.481Z,16.50
2022-12-18T20:36:25.807Z,16.77
2022-12-18T20:39:18.606Z,18.17
2022-12-18T20:42:07.137Z,15.80
2022-12-18T20:44:54.418Z,16.80
2022-12-18T20:47:41.717Z,17.13
2022-12-18T20:50:29.064Z,17.27
2022-12-18T20:53:16.896Z,16.70
2022-12-18T20:56:08.120Z,17.23
2022-12-18T20:58:57.043Z,16.57
2022-12-18T21:01:48.349Z,17.00
2022-12-18T21:04:36.366Z,17.07
2022-12-18T21:07:23.695Z,17.00
2022-12-18T21:10:11.486Z,18.13
2022-12-18T21:13:04.280Z,17.87
2022-12-18T21:15:54.882Z,15.03
2022-12-18T21:18:42.266Z,18.80
2022-12-18T21:21:30.263Z,17.77
2022-12-18T21:24:22.850Z,16.37
2022-12-18T21:27:10.631Z,17.87
2022-12-18T21:30:01.540Z,16.40
2022-12-18T21:32:48.816Z,16.07
2022-12-18T21:35:37.035Z,15.57
2022-12-18T21:38:24.829Z,16.90
2022-12-18T21:41:41.745Z,17.93
2022-12-18T21:44:30.218Z,17.30
2022-12-18T21:47:23.065Z,17.77
2022-12-18T21:50:11.294Z,17.93
2022-12-18T21:52:58.990Z,16.47
2022-12-18T21:55:46.436Z,17.63
2022-12-18T21:58:34.281Z,17.57
2022-12-18T22:01:22.119Z,18.73
2022-12-18T22:04:10.040Z,18.23
2022-12-18T22:06:58.325Z,17.77
2022-12-18T22:09:46.263Z,16.73
2022-12-18T22:12:43.393Z,16.23
2022-12-18T22:15:31.251Z,16.57
2022-12-18T22:18:18.526Z,16.47
2022-12-18T22:21:06.884Z,17.50
2022-12-18T22:23:58.756Z,15.60
2022-12-18T22:26:46.579Z,18.37
2022-12-18T22:29:52.619Z,16.93
2022-12-18T22:32:40.027Z,16.90
2022-12-18T22:35:27.764Z,16.17
2022-12-18T22:38:18.057Z,18.70
2022-12-18T22:41:05.746Z,17.93
2022-12-18T22:43:53.178Z,17.10
2022-12-18T22:46:42.256Z,19.57
2022-12-18T22:49:30.120Z,16.50
2022-12-18T22:52:17.512Z,17.17
2022-12-18T22:55:07.521Z,15.80
2022-12-18T22:57:59.076Z,17.03
2022-12-18T23:00:46.749Z,16.33
2022-12-18T23:03:34.422Z,16.40
2022-12-18T23:06:23.216Z,16.97
2022-12-18T23:09:21.134Z,16.33
2022-12-18T23:12:08.993Z,16.60
2022-12-18T23:14:56.828Z,15.93
2022-12-18T23:17:44.489Z,16.43
2022-12-18T23:20:32.252Z,14.50
2022-12-18T23:23:19.760Z,17.30
2022-12-18T23:26:26.504Z,17.40
2022-12-18T23:29:13.690Z,15.13
2022-12-18T23:32:01.479Z,17.37
2022-12-18T23:34:48.849Z,17.17
2022-12-18T23:37:58.600Z,16.20
2022-12-18T23:40:44.292Z,16.60
2022-12-18T23:43:34.167Z,16.40
2022-12-18T23:46:23.683Z,15.90
2022-12-18T23:49:11.512Z,16.40
2022-12-18T23:51:58.767Z,16.40
2022-12-18T23:54:46.896Z,15.77
2022-12-18T23:57:34.360Z,14.37
